PIMOHWEATHER Station Historical Data
Daily Summary for November 12, 2020 Units:  Metric    English   Both
Daily Weekly Monthly Yearly
  High: Low: Average:
Temperature: 28.0 °C 25.0 °C 27 °C
Dew Point: 24.0 °C 23.0 °C 23.3 °C
Humidity: 89% 77% 80%
Wind Speed: 68km/h 4km/h 16.9km/h
Wind Gust: 93km/h - -
Wind- - SSW
Pressure: 1012.1 hPa 994.5 hPa -
Precipitation: 138.30 mm    
 
 
Tabular Data for November 12, 2020
Time Temperature Dew Point Pressure Wind Wind Speed Wind Gust Humidity Rainfall Rate (Hourly) solar
00:04 27.0 °C 23.0 °C 997.6 hPa West 33 km/h 56 km/h 81% 3.61 mm 0.00 W/m2
00:09 27.0 °C 23.0 °C 997.6 hPa NNE 27 km/h 56 km/h 81% 3.61 mm 0.00 W/m2
00:14 27.0 °C 23.0 °C 997.5 hPa NW 46 km/h 68 km/h 81% 1.80 mm 0.00 W/m2
00:19 26.0 °C 23.0 °C 997.2 hPa NNE 44 km/h 77 km/h 82% 0.00 mm 0.00 W/m2
00:24 26.0 °C 23.0 °C 997.2 hPa North 64 km/h 93 km/h 84% 1.80 mm 0.00 W/m2
00:29 26.0 °C 23.0 °C 997.1 hPa NNE 38 km/h 53 km/h 84% 1.80 mm 0.00 W/m2
00:34 26.0 °C 23.0 °C 996.7 hPa NNE 36 km/h 53 km/h 84% 1.80 mm 0.00 W/m2
00:39 26.0 °C 23.0 °C 996.6 hPa North 37 km/h 77 km/h 84% 3.61 mm 0.00 W/m2
00:44 26.0 °C 23.0 °C 996.3 hPa North 48 km/h 68 km/h 83% 5.41 mm 0.00 W/m2
00:49 26.0 °C 23.0 °C 996.3 hPa NE 53 km/h 64 km/h 84% 3.61 mm 0.00 W/m2
00:54 26.0 °C 23.0 °C 996.0 hPa South 28 km/h 44 km/h 84% 3.61 mm 0.00 W/m2
00:59 26.0 °C 23.0 °C 995.8 hPa NW 31 km/h 56 km/h 84% 5.41 mm 0.00 W/m2
01:04 26.0 °C 23.0 °C 995.8 hPa SSE 23 km/h 48 km/h 83% 5.41 mm 0.00 W/m2
01:09 26.0 °C 23.0 °C 995.4 hPa SSW 43 km/h 61 km/h 83% 5.41 mm 0.00 W/m2
01:14 26.0 °C 23.0 °C 995.2 hPa East 31 km/h 44 km/h 84% 5.41 mm 0.00 W/m2
01:19 26.0 °C 23.0 °C 995.2 hPa South 35 km/h 64 km/h 85% 5.41 mm 0.00 W/m2
01:24 25.0 °C 23.0 °C 995.2 hPa NNE 40 km/h 85 km/h 85% 5.41 mm 0.00 W/m2
01:29 25.0 °C 23.0 °C 995.1 hPa WNW 55 km/h 68 km/h 86% 5.41 mm 0.00 W/m2
01:34 25.0 °C 23.0 °C 995.1 hPa ENE 51 km/h 81 km/h 87% 7.19 mm 0.00 W/m2
01:39 25.0 °C 23.0 °C 994.9 hPa WNW 26 km/h 44 km/h 87% 8.99 mm 0.00 W/m2
01:44 25.0 °C 23.0 °C 995.0 hPa SSW 37 km/h 53 km/h 86% 8.99 mm 0.00 W/m2
01:49 25.0 °C 23.0 °C 994.9 hPa SSW 41 km/h 85 km/h 87% 10.80 mm 0.00 W/m2
01:54 25.0 °C 23.0 °C 994.9 hPa West 56 km/h 77 km/h 88% 8.99 mm 0.00 W/m2
01:59 25.0 °C 23.0 °C 995.0 hPa SSW 68 km/h 93 km/h 88% 7.19 mm 0.00 W/m2
02:02 25.0 °C 23.0 °C 994.5 hPa SSW 67 km/h 85 km/h 89% 5.41 mm 0.00 W/m2
13:19 27.0 °C 24.0 °C 1008.2 hPa SW 24 km/h 32 km/h 82% 0.00 mm 171.76 W/m2
13:24 27.0 °C 24.0 °C 1008.2 hPa SW 20 km/h 32 km/h 82% 0.00 mm 186.93 W/m2
13:29 27.0 °C 24.0 °C 1008.1 hPa SW 25 km/h 48 km/h 83% 1.80 mm 201.24 W/m2
13:34 27.0 °C 24.0 °C 1007.8 hPa NNE 20 km/h 28 km/h 82% 1.80 mm 235.98 W/m2
13:39 27.0 °C 24.0 °C 1007.5 hPa SSW 27 km/h 48 km/h 81% 1.80 mm 240.27 W/m2
13:44 27.0 °C 23.0 °C 1007.6 hPa SW 31 km/h 44 km/h 80% 0.00 mm 310.12 W/m2
13:49 27.0 °C 24.0 °C 1007.7 hPa SW 23 km/h 32 km/h 80% 0.00 mm 277.09 W/m2
13:54 27.0 °C 24.0 °C 1007.8 hPa South 27 km/h 40 km/h 79% 0.00 mm 270.24 W/m2
13:59 28.0 °C 24.0 °C 1007.7 hPa SW 25 km/h 40 km/h 79% 0.00 mm 282.84 W/m2
14:04 28.0 °C 23.0 °C 1007.8 hPa SSW 20 km/h 28 km/h 78% 0.00 mm 248.95 W/m2
14:09 28.0 °C 24.0 °C 1007.7 hPa SW 19 km/h 28 km/h 78% 0.00 mm 220.32 W/m2
14:14 28.0 °C 24.0 °C 1007.6 hPa SW 20 km/h 36 km/h 78% 0.00 mm 227.66 W/m2
14:19 28.0 °C 24.0 °C 1007.7 hPa SW 13 km/h 16 km/h 78% 0.00 mm 229.87 W/m2
14:24 28.0 °C 24.0 °C 1007.8 hPa SSW 20 km/h 24 km/h 77% 0.00 mm 219.47 W/m2
14:29 28.0 °C 24.0 °C 1007.7 hPa SSW 17 km/h 28 km/h 77% 0.00 mm 217.76 W/m2
14:34 28.0 °C 24.0 °C 1007.7 hPa SW 15 km/h 24 km/h 78% 0.00 mm 233.78 W/m2
14:39 28.0 °C 24.0 °C 1007.7 hPa SW 15 km/h 32 km/h 78% 0.00 mm 201.61 W/m2
14:44 28.0 °C 24.0 °C 1008.0 hPa SSW 13 km/h 24 km/h 78% 0.00 mm 184.36 W/m2
14:49 28.0 °C 24.0 °C 1007.8 hPa WSW 8 km/h 12 km/h 79% 0.00 mm 167.36 W/m2
14:54 28.0 °C 24.0 °C 1008.0 hPa SSW 14 km/h 20 km/h 79% 0.00 mm 143.13 W/m2
14:59 28.0 °C 24.0 °C 1007.6 hPa SSW 13 km/h 16 km/h 80% 1.80 mm 139.22 W/m2
15:04 27.0 °C 24.0 °C 1007.6 hPa SW 15 km/h 28 km/h 80% 1.80 mm 107.90 W/m2
15:09 27.0 °C 24.0 °C 1007.7 hPa SW 15 km/h 24 km/h 81% 1.80 mm 98.36 W/m2
15:14 27.0 °C 24.0 °C 1007.8 hPa SSW 12 km/h 16 km/h 82% 0.00 mm 92.73 W/m2
15:19 27.0 °C 24.0 °C 1008.0 hPa SW 10 km/h 12 km/h 82% 0.00 mm 82.33 W/m2
15:24 27.0 °C 24.0 °C 1008.2 hPa SW 18 km/h 24 km/h 82% 0.00 mm 67.65 W/m2
15:29 27.0 °C 24.0 °C 1008.5 hPa SSW 15 km/h 24 km/h 82% 1.80 mm 44.16 W/m2
15:34 27.0 °C 24.0 °C 1008.8 hPa SW 9 km/h 12 km/h 82% 1.80 mm 35.48 W/m2
15:39 27.0 °C 24.0 °C 1008.8 hPa SW 10 km/h 12 km/h 82% 1.80 mm 32.42 W/m2
15:44 27.0 °C 24.0 °C 1008.5 hPa SW 18 km/h 28 km/h 82% 0.00 mm 31.56 W/m2
15:49 27.0 °C 24.0 °C 1008.5 hPa SSW 15 km/h 24 km/h 81% 0.00 mm 24.71 W/m2
15:54 27.0 °C 24.0 °C 1008.4 hPa SSW 15 km/h 24 km/h 81% 0.00 mm 22.02 W/m2
15:59 27.0 °C 24.0 °C 1008.4 hPa SW 12 km/h 16 km/h 81% 0.00 mm 17.73 W/m2
16:04 27.0 °C 24.0 °C 1008.5 hPa SW 13 km/h 16 km/h 81% 0.00 mm 13.82 W/m2
16:09 27.0 °C 24.0 °C 1008.5 hPa SW 12 km/h 16 km/h 81% 0.00 mm 10.39 W/m2
16:14 27.0 °C 23.0 °C 1008.6 hPa SSW 15 km/h 24 km/h 80% 0.00 mm 9.91 W/m2
16:19 27.0 °C 23.0 °C 1008.6 hPa SW 12 km/h 20 km/h 80% 0.00 mm 9.91 W/m2
16:24 27.0 °C 23.0 °C 1008.7 hPa SW 10 km/h 20 km/h 80% 0.00 mm 10.77 W/m2
16:29 27.0 °C 24.0 °C 1008.7 hPa SSW 10 km/h 16 km/h 80% 0.00 mm 11.25 W/m2
16:34 27.0 °C 23.0 °C 1008.8 hPa SSW 10 km/h 16 km/h 80% 0.00 mm 10.77 W/m2
16:39 27.0 °C 23.0 °C 1009.0 hPa SW 15 km/h 24 km/h 79% 0.00 mm 10.39 W/m2
16:44 27.0 °C 24.0 °C 1009.0 hPa South 18 km/h 28 km/h 80% 0.00 mm 8.19 W/m2
16:49 28.0 °C 23.0 °C 1009.1 hPa SSW 20 km/h 28 km/h 78% 0.00 mm 8.19 W/m2
16:54 28.0 °C 23.0 °C 1009.1 hPa SW 13 km/h 20 km/h 78% 0.00 mm 7.34 W/m2
16:59 27.0 °C 24.0 °C 1009.1 hPa SW 13 km/h 20 km/h 79% 0.00 mm 5.99 W/m2
17:04 27.0 °C 24.0 °C 1009.1 hPa SSW 14 km/h 24 km/h 79% 0.00 mm 3.79 W/m2
17:09 27.0 °C 24.0 °C 1009.1 hPa WSW 13 km/h 20 km/h 79% 0.00 mm 2.57 W/m2
17:14 27.0 °C 24.0 °C 1009.4 hPa SW 9 km/h 12 km/h 79% 0.00 mm 1.71 W/m2
17:19 27.0 °C 23.0 °C 1009.6 hPa SW 10 km/h 16 km/h 79% 0.00 mm 0.85 W/m2
17:24 27.0 °C 23.0 °C 1009.5 hPa SSW 14 km/h 28 km/h 79% 0.00 mm 0.00 W/m2
17:29 27.0 °C 23.0 °C 1009.6 hPa SW 14 km/h 16 km/h 78% 0.00 mm 0.00 W/m2
17:34 27.0 °C 24.0 °C 1009.5 hPa South 10 km/h 12 km/h 79% 0.00 mm 0.00 W/m2
17:39 27.0 °C 23.0 °C 1009.8 hPa SW 14 km/h 20 km/h 79% 0.00 mm 0.00 W/m2
17:44 27.0 °C 24.0 °C 1010.0 hPa SW 18 km/h 24 km/h 80% 0.00 mm 0.00 W/m2
17:49 27.0 °C 24.0 °C 1010.3 hPa SW 11 km/h 12 km/h 81% 0.00 mm 0.00 W/m2
17:54 27.0 °C 24.0 °C 1010.5 hPa SSW 9 km/h 12 km/h 82% 1.80 mm 0.00 W/m2
17:59 27.0 °C 24.0 °C 1010.6 hPa SSW 12 km/h 20 km/h 82% 1.80 mm 0.00 W/m2
18:04 27.0 °C 23.0 °C 1010.8 hPa SW 9 km/h 12 km/h 81% 1.80 mm 0.00 W/m2
18:09 27.0 °C 23.0 °C 1010.8 hPa SW 7 km/h 12 km/h 81% 0.00 mm 0.00 W/m2
18:14 27.0 °C 24.0 °C 1010.8 hPa SW 7 km/h 8 km/h 82% 0.00 mm 0.00 W/m2
18:19 27.0 °C 23.0 °C 1010.8 hPa SSW 5 km/h 12 km/h 81% 0.00 mm 0.00 W/m2
18:24 27.0 °C 24.0 °C 1010.6 hPa SW 10 km/h 12 km/h 82% 0.00 mm 0.00 W/m2
18:29 27.0 °C 24.0 °C 1011.0 hPa SW 4 km/h 8 km/h 82% 0.00 mm 0.00 W/m2
18:34 27.0 °C 23.0 °C 1010.9 hPa SW 4 km/h 8 km/h 82% 0.00 mm 0.00 W/m2
18:39 27.0 °C 23.0 °C 1011.0 hPa SW 4 km/h 8 km/h 82% 0.00 mm 0.00 W/m2
18:44 27.0 °C 23.0 °C 1011.0 hPa SW 4 km/h 4 km/h 82% 0.00 mm 0.00 W/m2
18:49 27.0 °C 23.0 °C 1010.9 hPa SW 6 km/h 8 km/h 82% 0.00 mm 0.00 W/m2
18:54 27.0 °C 23.0 °C 1010.8 hPa West 4 km/h 4 km/h 82% 0.00 mm 0.00 W/m2
18:59 27.0 °C 23.0 °C 1010.7 hPa SW 6 km/h 8 km/h 82% 0.00 mm 0.00 W/m2
19:04 27.0 °C 23.0 °C 1010.8 hPa SW 4 km/h 4 km/h 82% 0.00 mm 0.00 W/m2
19:09 27.0 °C 23.0 °C 1010.7 hPa WSW 8 km/h 12 km/h 82% 0.00 mm 0.00 W/m2
19:14 27.0 °C 23.0 °C 1010.7 hPa SW 11 km/h 16 km/h 82% 0.00 mm 0.00 W/m2
19:19 27.0 °C 23.0 °C 1010.7 hPa SSW 9 km/h 12 km/h 81% 0.00 mm 0.00 W/m2
19:24 27.0 °C 23.0 °C 1010.7 hPa WSW 12 km/h 16 km/h 80% 0.00 mm 0.00 W/m2
19:29 27.0 °C 23.0 °C 1010.7 hPa SW 15 km/h 20 km/h 80% 0.00 mm 0.00 W/m2
19:34 27.0 °C 23.0 °C 1010.9 hPa SSW 10 km/h 16 km/h 80% 0.00 mm 0.00 W/m2
19:39 27.0 °C 23.0 °C 1011.0 hPa SW 11 km/h 16 km/h 80% 0.00 mm 0.00 W/m2
19:44 27.0 °C 23.0 °C 1011.0 hPa South 9 km/h 16 km/h 80% 0.00 mm 0.00 W/m2
19:49 27.0 °C 23.0 °C 1011.0 hPa SSW 8 km/h 12 km/h 80% 0.00 mm 0.00 W/m2
19:54 27.0 °C 23.0 °C 1011.0 hPa WSW 11 km/h 12 km/h 80% 0.00 mm 0.00 W/m2
19:59 27.0 °C 23.0 °C 1011.0 hPa South 12 km/h 16 km/h 80% 0.00 mm 0.00 W/m2
20:04 27.0 °C 23.0 °C 1011.1 hPa SW 10 km/h 16 km/h 80% 0.00 mm 0.00 W/m2
20:09 27.0 °C 23.0 °C 1011.2 hPa SW 7 km/h 20 km/h 80% 0.00 mm 0.00 W/m2
20:14 27.0 °C 23.0 °C 1011.1 hPa SW 12 km/h 20 km/h 79% 0.00 mm 0.00 W/m2
20:19 27.0 °C 23.0 °C 1011.1 hPa SW 14 km/h 16 km/h 79% 0.00 mm 0.00 W/m2
20:24 27.0 °C 23.0 °C 1011.2 hPa SSW 12 km/h 16 km/h 80% 0.00 mm 0.00 W/m2
20:29 27.0 °C 23.0 °C 1011.2 hPa SW 8 km/h 12 km/h 80% 0.00 mm 0.00 W/m2
20:34 27.0 °C 23.0 °C 1011.2 hPa SW 11 km/h 12 km/h 79% 0.00 mm 0.00 W/m2
20:39 27.0 °C 23.0 °C 1011.3 hPa SW 8 km/h 12 km/h 80% 0.00 mm 0.00 W/m2
20:44 27.0 °C 23.0 °C 1011.3 hPa SSW 11 km/h 16 km/h 79% 0.00 mm 0.00 W/m2
20:49 27.0 °C 23.0 °C 1011.3 hPa SW 10 km/h 12 km/h 79% 0.00 mm 0.00 W/m2
20:54 27.0 °C 23.0 °C 1011.5 hPa SW 10 km/h 12 km/h 79% 0.00 mm 0.00 W/m2
20:59 27.0 °C 23.0 °C 1011.5 hPa SSW 10 km/h 12 km/h 79% 0.00 mm 0.00 W/m2
21:04 27.0 °C 23.0 °C 1011.5 hPa SW 10 km/h 16 km/h 79% 0.00 mm 0.00 W/m2
21:09 27.0 °C 23.0 °C 1011.3 hPa SSW 10 km/h 16 km/h 78% 0.00 mm 0.00 W/m2
21:14 27.0 °C 23.0 °C 1011.5 hPa SW 8 km/h 12 km/h 78% 0.00 mm 0.00 W/m2
21:19 27.0 °C 23.0 °C 1011.7 hPa SW 10 km/h 12 km/h 78% 0.00 mm 0.00 W/m2
21:24 27.0 °C 23.0 °C 1011.8 hPa SSW 9 km/h 12 km/h 78% 0.00 mm 0.00 W/m2
21:29 27.0 °C 23.0 °C 1011.7 hPa SSW 9 km/h 12 km/h 78% 0.00 mm 0.00 W/m2
21:34 27.0 °C 23.0 °C 1011.7 hPa SW 10 km/h 12 km/h 78% 0.00 mm 0.00 W/m2
21:39 27.0 °C 23.0 °C 1011.6 hPa WSW 10 km/h 12 km/h 78% 0.00 mm 0.00 W/m2
21:44 27.0 °C 23.0 °C 1011.9 hPa SW 6 km/h 12 km/h 78% 0.00 mm 0.00 W/m2
21:49 27.0 °C 23.0 °C 1012.0 hPa SW 6 km/h 8 km/h 79% 0.00 mm 0.00 W/m2
21:54 27.0 °C 23.0 °C 1012.1 hPa SSW 10 km/h 12 km/h 79% 0.00 mm 0.00 W/m2
21:59 27.0 °C 23.0 °C 1012.0 hPa SW 10 km/h 16 km/h 78% 0.00 mm 0.00 W/m2
22:04 27.0 °C 23.0 °C 1011.9 hPa SW 9 km/h 16 km/h 78% 0.00 mm 0.00 W/m2
22:09 27.0 °C 23.0 °C 1012.0 hPa South 12 km/h 16 km/h 78% 0.00 mm 0.00 W/m2
22:14 27.0 °C 23.0 °C 1011.9 hPa South 12 km/h 12 km/h 78% 0.00 mm 0.00 W/m2
22:19 27.0 °C 23.0 °C 1012.0 hPa SW 5 km/h 8 km/h 78% 0.00 mm 0.00 W/m2
22:24 27.0 °C 23.0 °C 1011.9 hPa SW 7 km/h 12 km/h 78% 0.00 mm 0.00 W/m2
22:29 27.0 °C 23.0 °C 1011.9 hPa West 8 km/h 12 km/h 78% 0.00 mm 0.00 W/m2
22:34 28.0 °C 23.0 °C 1011.8 hPa South 12 km/h 16 km/h 77% 0.00 mm 0.00 W/m2
22:39 27.0 °C 23.0 °C 1011.8 hPa SW 10 km/h 16 km/h 77% 0.00 mm 0.00 W/m2
22:44 27.0 °C 23.0 °C 1011.9 hPa SW 9 km/h 12 km/h 77% 0.00 mm 0.00 W/m2
22:49 27.0 °C 23.0 °C 1011.8 hPa South 6 km/h 8 km/h 78% 0.00 mm 0.00 W/m2
22:54 27.0 °C 23.0 °C 1011.8 hPa SSW 8 km/h 12 km/h 78% 0.00 mm 0.00 W/m2
22:59 27.0 °C 23.0 °C 1011.8 hPa SSW 8 km/h 12 km/h 78% 0.00 mm 0.00 W/m2
23:04 28.0 °C 23.0 °C 1011.9 hPa SW 10 km/h 16 km/h 77% 0.00 mm 0.00 W/m2
23:09 28.0 °C 23.0 °C 1011.9 hPa SSW 10 km/h 12 km/h 77% 0.00 mm 0.00 W/m2
23:14 28.0 °C 23.0 °C 1011.9 hPa SW 6 km/h 12 km/h 77% 0.00 mm 0.00 W/m2
23:19 28.0 °C 23.0 °C 1011.7 hPa NNW 12 km/h 16 km/h 77% 0.00 mm 0.00 W/m2
23:24 27.0 °C 23.0 °C 1011.7 hPa South 12 km/h 24 km/h 77% 0.00 mm 0.00 W/m2
23:29 28.0 °C 23.0 °C 1011.6 hPa SSW 10 km/h 16 km/h 77% 0.00 mm 0.00 W/m2
23:34 28.0 °C 23.0 °C 1011.6 hPa SW 13 km/h 16 km/h 77% 0.00 mm 0.00 W/m2
23:39 27.0 °C 23.0 °C 1011.4 hPa SW 11 km/h 16 km/h 77% 0.00 mm 0.00 W/m2
23:44 28.0 °C 23.0 °C 1011.4 hPa SW 11 km/h 16 km/h 77% 0.00 mm 0.00 W/m2
23:49 28.0 °C 23.0 °C 1011.3 hPa SSW 15 km/h 20 km/h 78% 0.00 mm 0.00 W/m2
23:54 27.0 °C 23.0 °C 1011.2 hPa SW 12 km/h 20 km/h 77% 0.00 mm 0.00 W/m2
23:59 27.0 °C 23.0 °C 1011.2 hPa SW 13 km/h 16 km/h 78% 0.00 mm 0.00 W/m2
PIMOHWEATHER Philippines
Compliments of Weather Underground - 2 mb